Eastern Iowa Airport (CID)


Airport Diagram
Current Weather/Forecast (VFR Conditions)
METAR KCID 201552Z 16011KT 10SM CLR M10/M13 A3009 RMK AO2 SLP205 T11001128
TAF KCID 201120Z 2012/2112 VRB04KT P6SM SKC FM201300 19011KT P6SM SCT250 FM201800 20019G27KT P6SM SCT250 FM210000 24012KT P6SM BKN250

All Charts
General
Chart Name Download
AIRPORT DIAGRAM
TAKEOFF MINIMUMS
ALTERNATE MINIMUMS
HOT SPOT

Approaches
Chart Name Download
ILS OR LOC RWY 09
ILS OR LOC RWY 27
RNAV (GPS) RWY 09
RNAV (GPS) RWY 13
RNAV (GPS) RWY 27
RNAV (GPS) RWY 31